Nearby METAR Reports

 

KSYN - Stanton, Minnesota, USA
Distance from station: NW 20mi, 33km
Updated: Wed, 25-Apr-2018 1:15pm CDT
Clear
Clear
 Wind from N
Wind: N 5 mph , 7 km/h
Temperature: 54°F , 12°C
Dew Point: 32°F , 0°C
Humidity: 44%
Barometer: 30.15 inHg , 1021 hPa
Clouds: Clear
Visibility: 10 miles , 16 km
2018/04/25 18:15 KSYN 251815Z AUTO 36004KT 10SM CLR 12/00 A3015 RMK AO2 T01191001
KTOB - Dodge Center, Minnesota, USA
Distance from station: SSW 21mi, 34km
Updated: Wed, 25-Apr-2018 1:15pm CDT
Clear
Clear
 Wind from N
Wind: N 5 mph , 7 km/h
Temperature: 52°F , 11°C
Dew Point: 28°F , -2°C
Humidity: 41%
Barometer: 30.16 inHg , 1021.3 hPa
Clouds: Clear
Visibility: 10 miles , 16 km
2018/04/25 18:15 KTOB 251815Z AUTO 36004KT 10SM CLR 11/M02 A3016 RMK AO2
K9MN - St Mary Hospital, Minnesota, USA
Distance from station: SSE 22mi, 35km
Updated: Wed, 25-Apr-2018 1:15pm CDT
Clear
Clear
 Wind from calm
Wind: Calm
Temperature: 52°F , 11°C
Dew Point: 28°F , -2°C
Humidity: 41%
Barometer: 30.15 inHg , 1021 hPa
Clouds: Clear
Visibility: 10 miles , 16 km
2018/04/25 18:15 K9MN 251815Z AUTO 00000KT 10SM CLR 11/M02 A3015 RMK AO1 T01141024
 
KRGK - Red Wing, Minnesota, USA
Distance from station: NNE 22mi, 35km
Updated: Wed, 25-Apr-2018 1:15pm CDT
Clear
Clear
 Wind from WSW
Wind: WSW 9 mph , 15 km/h
Temperature: 54°F , 12°C
Dew Point: 21°F , -6°C
Humidity: 28%
Barometer: 30.15 inHg , 1021 hPa
Clouds: Clear
Visibility: 10 miles , 16 km
2018/04/25 18:15 KRGK 251815Z AUTO 24008KT 10SM CLR 12/M06 A3015 RMK AO2
KRST - Rochester, Minnesota, USA
Distance from station: SSE 29mi, 47km
Updated: Wed, 25-Apr-2018 12:54pm CDT
Clear
Clear
 Wind from N
Wind: N 9 mph , 15 km/h
Temperature: 54°F , 12°C
Dew Point: 32°F , 0°C
Humidity: 44%
Barometer: 30.16 inHg , 1021.3 hPa
Clouds: Clear
Visibility: 10 miles , 16 km
2018/04/25 17:54 KRST 251754Z 36008KT 10SM CLR 12/00 A3016 RMK AO2 SLP221 T01220000 10122 20022 58018
KOWA - Owatonna, Minnesota, USA
Distance from station: WSW 31mi, 50km
Updated: Wed, 25-Apr-2018 1:11pm CDT
Clear
Clear
 Wind from calm
Wind: Calm
Temperature: 52°F , 11°C
Dew Point: 30°F , -1°C
Humidity: 44%
Barometer: 30.16 inHg , 1021.3 hPa
Clouds: Clear
Visibility: 10 miles , 16 km
2018/04/25 18:11 KOWA 251811Z AUTO 00000KT 10SM CLR 11/M01 A3016 RMK AO2
 
KFBL - Faribault Muni, Minnesota, USA
Distance from station: W 32mi, 51km
Updated: Wed, 25-Apr-2018 10:55am CDT
NOT Current
Clear
Clear
 Wind from calm
Wind: Calm
Temperature: 46°F , 8°C
Dew Point: 30°F , -1°C
Humidity: 53%
Barometer: 30.23 inHg , 1023.7 hPa
Clouds: Clear
Visibility: 10 miles , 16 km
2018/04/25 15:55 KFBL 251555Z AUTO 00000KT 10SM CLR 08/M01 A3023 RMK AO2
KSGS - South St Paul, Minnesota, USA
Distance from station: NNW 43mi, 69km
Updated: Wed, 25-Apr-2018 1:15pm CDT
Clear
Clear
 Wind from ENE
Wind: ENE 7 mph , 11 km/h
Temperature: 54°F , 12°C
Dew Point: 25°F , -4°C
Humidity: 33%
Barometer: 30.17 inHg , 1021.7 hPa
Clouds: Clear
Visibility: 10 miles , 16 km
2018/04/25 18:15 KSGS 251815Z AUTO 06006KT 10SM CLR 12/M04 A3017 RMK AO2 T01231041
KAUM - Austin Muni, Minnesota, USA
Distance from station: SSW 46mi, 73km
Updated: Wed, 25-Apr-2018 1:15pm CDT
Clear
Clear
 Wind from NNE
Wind: NNE 6 mph , 9 km/h
Temperature: 52°F , 11°C
Dew Point: 34°F , 1°C
Humidity: 50%
Barometer: 30.15 inHg , 1021 hPa
Clouds: Clear
Visibility: 10 miles , 16 km
2018/04/25 18:15 KAUM 251815Z AUTO 02005KT 10SM CLR 11/01 A3015 RMK AO2
 
KACQ - Waseca, Minnesota, USA
Distance from station: WSW 46mi, 75km
Updated: Wed, 25-Apr-2018 1:15pm CDT
Clear
Clear
 Wind from NNW
Wind: NNW 8 mph , 13 km/h
Temperature: 52°F , 11°C
Dew Point: 32°F , 0°C
Humidity: 47%
Barometer: 30.18 inHg , 1022 hPa
Clouds: Clear
Visibility: 10 miles , 16 km
2018/04/25 18:15 KACQ 251815Z AUTO 34007KT 10SM CLR 11/00 A3018 RMK AO2
KSTP - St. Paul, Minnesota, USA
Distance from station: NNW 47mi, 76km
Updated: Wed, 25-Apr-2018 12:53pm CDT
Clear
Clear
 
Temperature: 54°F , 12°C
Dew Point: 25°F , -4°C
Humidity: 33%
Barometer: 30.19 inHg , 1022.4 hPa
Clouds: Clear
Visibility: 10 miles , 16 km
2018/04/25 17:53 KSTP 251753Z 10SM CLR 12/M04 A3019 RMK AO2 SLP223 T01171039 10117 20017 58024
KMSP - Minneapolis, Minnesota, USA
Distance from station: NW 49mi, 78km
Updated: Wed, 25-Apr-2018 12:53pm CDT
Clear
Clear
 Wind from calm
Wind: Calm
Temperature: 54°F , 12°C
Dew Point: 25°F , -4°C
Humidity: 33%
Barometer: 30.18 inHg , 1022 hPa
Clouds: Clear
Visibility: 10 miles , 16 km
2018/04/25 17:53 KMSP 251753Z 00000KT 10SM CLR 12/M04 A3018 RMK AO2 SLP224 T01221039 10122 20022 58022